createdAt,value
2022-10-27T00:01:18.985Z,99.90
2022-10-27T00:06:15.695Z,99.90
2022-10-27T00:11:12.443Z,99.90
2022-10-27T00:13:41.984Z,99.90
2022-10-27T00:16:15.490Z,99.90
2022-10-27T00:21:15.289Z,99.90
2022-10-27T00:23:44.074Z,99.90
2022-10-27T00:26:14.057Z,99.90
2022-10-27T00:28:43.932Z,99.90
2022-10-27T00:31:14.628Z,99.90
2022-10-27T00:33:42.978Z,99.90
2022-10-27T00:36:13.227Z,99.90
2022-10-27T00:41:24.757Z,99.90
2022-10-27T00:43:54.570Z,99.90
2022-10-27T00:46:29.257Z,99.90
2022-10-27T00:49:01.550Z,99.90
2022-10-27T00:53:58.273Z,99.90
2022-10-27T00:58:56.911Z,99.90
2022-10-27T01:01:25.465Z,99.90
2022-10-27T01:03:54.092Z,99.90
2022-10-27T01:06:22.669Z,99.90
2022-10-27T01:11:19.631Z,99.90
2022-10-27T01:16:28.058Z,99.90
2022-10-27T01:19:05.178Z,99.90
2022-10-27T01:24:56.978Z,99.90
2022-10-27T01:28:06.593Z,99.90
2022-10-27T01:30:41.279Z,99.90
2022-10-27T01:33:14.983Z,99.90
2022-10-27T01:35:50.592Z,99.90
2022-10-27T01:38:23.043Z,99.90
2022-10-27T01:40:57.591Z,99.90
2022-10-27T01:43:28.151Z,99.90
2022-10-27T01:45:58.017Z,99.90
2022-10-27T01:48:27.863Z,99.90
2022-10-27T01:53:33.346Z,99.90
2022-10-27T01:56:14.778Z,99.90
2022-10-27T01:59:04.969Z,99.90
2022-10-27T02:01:45.421Z,99.90
2022-10-27T02:04:23.903Z,99.90
2022-10-27T02:07:00.724Z,99.90
2022-10-27T02:09:38.835Z,99.90
2022-10-27T02:12:12.550Z,99.90
2022-10-27T02:17:15.051Z,99.90
2022-10-27T02:19:50.138Z,99.90
2022-10-27T02:22:18.670Z,99.90
2022-10-27T02:27:25.120Z,99.90
2022-10-27T02:29:58.357Z,99.90
2022-10-27T02:32:28.857Z,99.90
2022-10-27T02:34:59.150Z,99.90
2022-10-27T02:37:31.980Z,99.90
2022-10-27T02:40:00.468Z,99.90
2022-10-27T02:44:57.323Z,99.90
2022-10-27T02:47:25.655Z,99.90
2022-10-27T02:52:23.961Z,99.90
2022-10-27T03:09:50.682Z,99.90
2022-10-27T03:19:45.855Z,99.90
2022-10-27T03:27:16.206Z,99.90
2022-10-27T03:44:40.730Z,99.90
2022-10-27T03:54:38.264Z,99.90
2022-10-27T04:02:07.224Z,99.90
2022-10-27T04:09:33.512Z,99.90
2022-10-27T04:19:29.216Z,99.90
2022-10-27T04:36:50.589Z,99.90
2022-10-27T04:54:11.108Z,99.90
2022-10-27T05:11:31.806Z,99.90
2022-10-27T05:28:51.911Z,99.90
2022-10-27T05:38:46.905Z,99.90
2022-10-27T05:46:13.531Z,99.90
2022-10-27T06:03:34.797Z,99.90
2022-10-27T06:06:05.622Z,99.90
2022-10-27T06:11:03.727Z,99.90
2022-10-27T06:20:58.824Z,99.90
2022-10-27T06:25:56.946Z,99.90
2022-10-27T06:38:22.231Z,99.90
2022-10-27T06:45:49.140Z,99.90
2022-10-27T06:55:44.555Z,99.90
2022-10-27T07:13:07.829Z,99.90
2022-10-27T07:18:08.391Z,99.90
2022-10-27T07:20:39.514Z,99.90
2022-10-27T07:23:08.554Z,99.90
2022-10-27T07:25:37.459Z,99.90
2022-10-27T07:28:07.665Z,99.90
2022-10-27T07:30:37.867Z,99.90
2022-10-27T07:45:39.653Z,99.90
2022-10-27T07:48:09.078Z,99.90
2022-10-27T07:53:06.384Z,99.90
2022-10-27T07:55:36.904Z,99.90
2022-10-27T07:58:08.012Z,99.90
2022-10-27T08:00:39.767Z,99.90
2022-10-27T08:03:17.127Z,99.90
2022-10-27T08:08:15.567Z,99.90
2022-10-27T08:10:45.721Z,99.90
2022-10-27T08:13:14.326Z,99.90
2022-10-27T08:15:44.650Z,99.90
2022-10-27T08:20:43.108Z,99.90
2022-10-27T08:23:14.183Z,99.90
2022-10-27T08:28:13.114Z,99.90
2022-10-27T08:33:22.806Z,99.90
2022-10-27T08:38:21.010Z,99.90
2022-10-27T08:41:04.717Z,99.90
2022-10-27T08:43:49.421Z,99.90
2022-10-27T08:46:23.645Z,99.90
2022-10-27T08:48:56.817Z,99.90
2022-10-27T08:51:27.360Z,99.90
2022-10-27T08:53:56.300Z,99.90
2022-10-27T08:56:28.959Z,99.90
2022-10-27T08:58:57.300Z,99.90
2022-10-27T09:01:33.983Z,99.90
2022-10-27T09:04:27.828Z,99.90
2022-10-27T09:07:14.580Z,99.90
2022-10-27T09:09:50.959Z,99.90
2022-10-27T09:12:30.550Z,99.90
2022-10-27T09:15:25.063Z,99.90
2022-10-27T09:18:00.456Z,92.00
2022-10-27T09:20:35.260Z,83.60
2022-10-27T09:23:10.369Z,82.90
2022-10-27T09:25:41.669Z,76.60
2022-10-27T09:28:18.922Z,71.20
2022-10-27T09:30:50.966Z,69.50
2022-10-27T09:33:24.814Z,66.90
2022-10-27T09:35:54.697Z,63.00
2022-10-27T09:38:27.656Z,61.10
2022-10-27T09:40:56.497Z,59.50
2022-10-27T09:43:25.066Z,60.70
2022-10-27T09:45:59.540Z,61.00
2022-10-27T09:48:28.315Z,60.80
2022-10-27T09:51:02.195Z,58.50
2022-10-27T09:53:46.429Z,60.10
2022-10-27T09:56:20.318Z,59.10
2022-10-27T09:58:57.891Z,57.20
2022-10-27T10:01:29.782Z,58.30
2022-10-27T10:04:07.553Z,58.80
2022-10-27T10:06:41.642Z,57.40
2022-10-27T10:09:24.049Z,56.60
2022-10-27T10:11:52.559Z,57.50
2022-10-27T10:14:25.082Z,56.00
2022-10-27T10:16:55.565Z,56.90
2022-10-27T10:19:25.088Z,56.80
2022-10-27T10:21:57.098Z,55.90
2022-10-27T10:24:27.757Z,57.80
2022-10-27T10:26:58.110Z,57.00
2022-10-27T10:29:30.352Z,58.80
2022-10-27T10:32:15.050Z,58.20
2022-10-27T10:34:44.272Z,58.90
2022-10-27T10:37:48.078Z,59.10
2022-10-27T10:40:28.645Z,58.00
2022-10-27T10:43:05.561Z,56.70
2022-10-27T10:45:37.049Z,58.70
2022-10-27T10:48:09.237Z,57.40
2022-10-27T10:50:48.289Z,58.80
2022-10-27T10:53:27.744Z,58.60
2022-10-27T10:56:03.352Z,59.10
2022-10-27T10:58:34.620Z,59.20
2022-10-27T11:01:05.068Z,59.70
2022-10-27T11:03:36.523Z,60.10
2022-10-27T11:06:07.624Z,59.40
2022-10-27T11:08:42.269Z,59.50
2022-10-27T11:11:17.308Z,60.00
2022-10-27T11:13:52.404Z,59.80
2022-10-27T11:16:21.943Z,59.40
2022-10-27T11:18:53.103Z,61.80
2022-10-27T11:21:32.126Z,63.20
2022-10-27T11:24:05.066Z,65.00
2022-10-27T11:26:37.542Z,67.80
2022-10-27T11:29:16.167Z,66.30
2022-10-27T11:31:55.299Z,68.60
2022-10-27T11:34:32.421Z,72.10
2022-10-27T11:37:06.741Z,70.50
2022-10-27T11:39:41.154Z,73.00
2022-10-27T11:42:15.713Z,72.90
2022-10-27T11:44:54.374Z,71.20
2022-10-27T11:47:30.911Z,74.70
2022-10-27T11:50:04.681Z,73.50
2022-10-27T11:52:39.596Z,74.20
2022-10-27T11:55:14.147Z,74.20
2022-10-27T11:57:48.672Z,74.60
2022-10-27T12:00:21.318Z,74.60
2022-10-27T12:03:21.853Z,74.20
2022-10-27T12:05:54.755Z,75.10
2022-10-27T12:08:37.422Z,75.00
2022-10-27T12:11:19.454Z,74.10
2022-10-27T12:13:55.754Z,76.10
2022-10-27T12:16:32.295Z,74.80
2022-10-27T12:19:04.857Z,75.00
2022-10-27T12:21:42.287Z,74.70
2022-10-27T12:24:18.219Z,72.00
2022-10-27T12:26:51.772Z,71.90
2022-10-27T12:29:20.610Z,72.10
2022-10-27T12:31:55.369Z,74.40
2022-10-27T12:34:26.147Z,72.80
2022-10-27T12:37:04.607Z,71.30
2022-10-27T12:39:41.586Z,71.60
2022-10-27T12:42:17.431Z,69.50
2022-10-27T12:44:58.443Z,70.20
2022-10-27T12:47:39.460Z,70.20
2022-10-27T12:50:21.550Z,69.60
2022-10-27T12:52:57.669Z,70.30
2022-10-27T12:55:50.008Z,72.10
2022-10-27T12:58:30.725Z,70.30
2022-10-27T13:01:07.437Z,70.70
2022-10-27T13:04:03.207Z,70.90
2022-10-27T13:06:51.667Z,72.90
2022-10-27T13:09:44.017Z,73.50
2022-10-27T13:12:28.535Z,70.60
2022-10-27T13:15:29.236Z,73.20
2022-10-27T13:18:06.084Z,69.00
2022-10-27T13:20:48.846Z,71.70
2022-10-27T13:23:24.429Z,73.60
2022-10-27T13:25:58.242Z,73.00
2022-10-27T13:28:34.242Z,72.10
2022-10-27T13:31:11.670Z,71.80
2022-10-27T13:33:41.446Z,71.70
2022-10-27T13:36:17.893Z,71.90
2022-10-27T13:38:46.345Z,71.50
2022-10-27T13:41:49.199Z,71.70
2022-10-27T13:44:29.794Z,71.20
2022-10-27T13:47:14.476Z,71.70
2022-10-27T13:50:00.906Z,71.70
2022-10-27T13:52:31.150Z,73.90
2022-10-27T13:55:30.189Z,74.60
2022-10-27T13:58:14.647Z,75.00
2022-10-27T14:01:19.473Z,76.30
2022-10-27T14:04:19.314Z,78.20
2022-10-27T14:06:49.228Z,78.20
2022-10-27T14:09:28.819Z,77.00
2022-10-27T14:12:01.283Z,78.80
2022-10-27T14:14:33.447Z,81.20
2022-10-27T14:17:12.954Z,82.20
2022-10-27T14:19:46.645Z,84.90
2022-10-27T14:22:32.700Z,84.40
2022-10-27T14:25:11.760Z,87.20
2022-10-27T14:27:39.873Z,89.10
2022-10-27T14:30:15.945Z,90.00
2022-10-27T14:32:45.701Z,89.30
2022-10-27T14:35:19.017Z,89.00
2022-10-27T14:37:47.774Z,84.20
2022-10-27T14:40:20.165Z,82.50
2022-10-27T14:42:50.684Z,84.10
2022-10-27T14:45:21.782Z,86.90
2022-10-27T14:47:59.912Z,90.20
2022-10-27T14:50:32.691Z,88.70
2022-10-27T14:53:02.241Z,89.00
2022-10-27T14:55:32.774Z,89.50
2022-10-27T14:58:01.635Z,91.70
2022-10-27T15:00:31.631Z,90.30
2022-10-27T15:03:04.337Z,91.10
2022-10-27T15:05:37.072Z,90.40
2022-10-27T15:08:09.422Z,91.40
2022-10-27T15:10:39.582Z,91.70
2022-10-27T15:13:14.768Z,91.70
2022-10-27T15:15:44.887Z,91.90
2022-10-27T15:18:23.088Z,90.90
2022-10-27T15:20:53.166Z,91.20
2022-10-27T15:23:22.399Z,91.40
2022-10-27T15:25:56.907Z,92.30
2022-10-27T15:28:31.199Z,93.50
2022-10-27T15:30:59.956Z,94.00
2022-10-27T15:33:37.166Z,93.90
2022-10-27T15:36:14.127Z,94.60
2022-10-27T15:38:43.173Z,95.00
2022-10-27T15:41:17.218Z,96.00
2022-10-27T15:43:51.102Z,96.10
2022-10-27T15:46:31.169Z,96.40
2022-10-27T15:49:25.668Z,96.50
2022-10-27T15:51:56.331Z,97.30
2022-10-27T15:54:34.544Z,97.50
2022-10-27T15:57:05.696Z,99.00
2022-10-27T15:59:34.815Z,98.80
2022-10-27T16:02:23.917Z,98.70
2022-10-27T16:04:53.954Z,99.50
2022-10-27T16:07:34.379Z,99.90
2022-10-27T16:10:02.673Z,99.90
2022-10-27T16:12:39.620Z,99.90
2022-10-27T16:15:17.645Z,99.90
2022-10-27T16:17:48.686Z,99.90
2022-10-27T16:20:20.254Z,99.90
2022-10-27T16:22:48.957Z,99.90
2022-10-27T16:25:18.875Z,99.90
2022-10-27T16:27:47.269Z,99.90
2022-10-27T16:30:18.839Z,99.90
2022-10-27T16:32:48.340Z,99.90
2022-10-27T16:35:20.354Z,99.90
2022-10-27T16:40:19.895Z,99.90
2022-10-27T16:42:51.900Z,99.90
2022-10-27T16:45:21.976Z,99.90
2022-10-27T16:47:52.260Z,99.90
2022-10-27T16:50:24.576Z,99.90
2022-10-27T16:52:54.649Z,99.90
2022-10-27T16:55:24.979Z,99.90
2022-10-27T16:57:57.161Z,99.90
2022-10-27T17:00:25.918Z,99.90
2022-10-27T17:02:54.081Z,99.90
2022-10-27T17:05:23.535Z,99.90
2022-10-27T17:07:52.238Z,99.90
2022-10-27T17:10:20.541Z,99.90
2022-10-27T17:15:17.273Z,99.90
2022-10-27T17:17:45.429Z,99.90
2022-10-27T17:20:14.926Z,99.90
2022-10-27T17:22:45.893Z,99.90
2022-10-27T17:25:14.338Z,99.90
2022-10-27T17:27:43.657Z,99.90
2022-10-27T17:30:13.109Z,99.90
2022-10-27T17:35:10.580Z,99.90
2022-10-27T17:37:39.044Z,99.90
2022-10-27T17:40:10.292Z,99.90
2022-10-27T17:42:38.637Z,99.90
2022-10-27T17:45:07.667Z,99.90
2022-10-27T17:47:36.325Z,99.90
2022-10-27T17:50:08.215Z,99.90
2022-10-27T17:52:38.083Z,99.90
2022-10-27T17:55:09.554Z,99.90
2022-10-27T17:57:37.645Z,99.90
2022-10-27T18:00:06.739Z,99.90
2022-10-27T18:02:35.204Z,99.90
2022-10-27T18:10:00.804Z,99.90
2022-10-27T18:12:31.054Z,99.90
2022-10-27T18:15:17.498Z,99.90
2022-10-27T18:17:49.865Z,99.90
2022-10-27T18:22:46.894Z,99.90
2022-10-27T18:25:15.270Z,99.90
2022-10-27T18:27:45.100Z,99.90
2022-10-27T18:30:14.003Z,99.90
2022-10-27T18:32:42.527Z,99.90
2022-10-27T18:37:39.674Z,99.90
2022-10-27T18:40:09.291Z,99.90
2022-10-27T18:45:08.352Z,99.90
2022-10-27T18:47:36.609Z,99.90
2022-10-27T18:55:08.208Z,99.90
2022-10-27T18:57:36.605Z,99.90
2022-10-27T19:00:07.889Z,99.90
2022-10-27T19:02:36.154Z,99.90
2022-10-27T19:05:05.047Z,99.90
2022-10-27T19:07:33.369Z,99.90
2022-10-27T19:12:29.875Z,99.90
2022-10-27T19:14:58.078Z,99.90
2022-10-27T19:17:27.569Z,99.90
2022-10-27T19:20:00.928Z,99.90
2022-10-27T19:22:29.091Z,99.90
2022-10-27T19:24:57.279Z,99.90
2022-10-27T19:27:25.414Z,99.90
2022-10-27T19:32:22.317Z,99.90
2022-10-27T19:34:51.951Z,99.90
2022-10-27T19:37:20.154Z,99.90
2022-10-27T19:39:48.805Z,99.90
2022-10-27T19:44:45.413Z,99.90
2022-10-27T19:47:14.057Z,99.90
2022-10-27T19:49:42.595Z,99.90
2022-10-27T19:52:12.172Z,99.90
2022-10-27T19:54:41.386Z,99.90
2022-10-27T19:57:09.884Z,99.90
2022-10-27T20:02:08.748Z,99.90
2022-10-27T20:04:38.537Z,99.90
2022-10-27T20:07:07.365Z,99.90
2022-10-27T20:09:37.141Z,99.90
2022-10-27T20:12:05.933Z,99.90
2022-10-27T20:14:34.425Z,99.90
2022-10-27T20:17:03.139Z,99.90
2022-10-27T20:19:37.823Z,99.90
2022-10-27T20:22:07.335Z,99.90
2022-10-27T20:24:37.178Z,99.90
2022-10-27T20:27:05.711Z,99.90
2022-10-27T20:29:35.601Z,99.90
2022-10-27T20:39:37.061Z,99.90
2022-10-27T20:42:05.706Z,99.90
2022-10-27T20:44:33.941Z,99.90
2022-10-27T20:51:59.382Z,99.90
2022-10-27T20:56:57.420Z,99.90
2022-10-27T20:59:26.857Z,99.90
2022-10-27T21:04:24.831Z,99.90
2022-10-27T21:09:22.449Z,99.90
2022-10-27T21:11:51.468Z,99.90
2022-10-27T21:14:22.439Z,99.90
2022-10-27T21:16:51.897Z,99.90
2022-10-27T21:24:17.850Z,99.90
2022-10-27T21:26:46.144Z,99.90
2022-10-27T21:29:14.856Z,99.90
2022-10-27T21:31:46.697Z,99.90
2022-10-27T21:41:43.549Z,99.90
2022-10-27T21:46:40.426Z,99.90
2022-10-27T21:49:12.891Z,99.90
2022-10-27T21:51:41.473Z,99.90
2022-10-27T21:54:10.774Z,99.90
2022-10-27T21:56:42.608Z,99.90
2022-10-27T21:59:11.354Z,99.90
2022-10-27T22:04:09.766Z,99.90
2022-10-27T22:06:38.218Z,99.90
2022-10-27T22:11:37.634Z,99.90
2022-10-27T22:16:35.676Z,99.90
2022-10-27T22:19:06.184Z,99.90
2022-10-27T22:21:38.801Z,99.90
2022-10-27T22:24:08.428Z,99.90
2022-10-27T22:31:33.866Z,99.90
2022-10-27T22:34:03.576Z,99.90
2022-10-27T22:36:33.705Z,99.90
2022-10-27T22:39:04.767Z,99.90
2022-10-27T22:41:35.289Z,99.90
2022-10-27T22:44:03.472Z,99.90
2022-10-27T22:46:33.193Z,99.90
2022-10-27T22:49:01.759Z,99.90
2022-10-27T22:53:59.454Z,99.90
2022-10-27T22:56:30.529Z,99.90
2022-10-27T22:59:00.212Z,99.90
2022-10-27T23:01:30.694Z,99.90
2022-10-27T23:04:00.802Z,99.90
2022-10-27T23:06:31.298Z,99.90
2022-10-27T23:09:01.501Z,99.90
2022-10-27T23:11:33.463Z,99.90
2022-10-27T23:14:01.603Z,99.90
2022-10-27T23:16:30.879Z,99.90
2022-10-27T23:19:00.858Z,99.90
2022-10-27T23:21:29.611Z,99.90
2022-10-27T23:23:59.253Z,99.90
2022-10-27T23:26:29.652Z,99.90
2022-10-27T23:29:01.551Z,99.90
2022-10-27T23:31:31.412Z,99.90
2022-10-27T23:34:02.681Z,99.90
2022-10-27T23:36:33.484Z,99.90
2022-10-27T23:39:02.512Z,99.90
2022-10-27T23:41:31.175Z,99.90
2022-10-27T23:44:01.615Z,99.90
2022-10-27T23:46:30.791Z,99.90
2022-10-27T23:48:59.170Z,99.90
2022-10-27T23:51:27.540Z,99.90
2022-10-27T23:56:25.221Z,99.90
